Time;durP1;ratioP1;P1;durP2;ratioP2;P2;SDS_P1;SDS_P2;PMS_P1;PMS_P2;Temp;Humidity;BMP_temperature;BMP_pressure;BME280_temperature;BME280_humidity;BME280_pressure;Samples;Min_cycle;Max_cycle;Signal;HPM_P1;HPM_P2
2020/12/19 06:13:33;;;;;;;37.23;20.35;;;;;;;0.02;100.00;102283.45;1650771;86;21187;-94
2020/12/19 09:16:25;;;;;;;41.85;20.62;;;;;;;0.33;100.00;102251.26;1702098;81;21778;-90
2020/12/19 09:19:03;;;;;;;32.88;17.98;;;;;;;0.36;100.00;102244.41;1711818;83;21376;-90
2020/12/19 09:21:40;;;;;;;45.10;21.82;;;;;;;0.37;100.00;102242.27;1700798;82;21300;-91
2020/12/19 09:24:08;;;;;;;44.40;20.92;;;;;;;0.38;100.00;102240.13;1729653;80;21300;-90
2020/12/19 09:26:37;;;;;;;45.65;22.45;;;;;;;0.38;100.00;102236.28;1731029;80;21832;-90
2020/12/19 09:29:05;;;;;;;39.83;20.57;;;;;;;0.40;100.00;102242.22;1721748;80;21221;-90
2020/12/19 09:31:33;;;;;;;38.13;20.77;;;;;;;0.43;100.00;102233.69;1728166;80;21378;-90
2020/12/19 09:34:01;;;;;;;41.50;21.25;;;;;;;0.46;100.00;102233.23;1724004;82;21612;-90
2020/12/19 09:41:00;;;;;;;34.48;19.67;;;;;;;0.54;100.00;102224.19;1696032;82;21509;-92
2020/12/19 09:47:33;;;;;;;42.15;19.67;;;;;;;0.61;100.00;102225.01;1707329;83;21213;-91
2020/12/19 09:50:12;;;;;;;43.55;20.92;;;;;;;0.61;100.00;102219.44;1715560;81;21181;-92
2020/12/19 09:53:14;;;;;;;40.83;22.13;;;;;;;0.60;100.00;102218.17;1710685;83;21228;-91
2020/12/19 09:56:26;;;;;;;41.15;21.37;;;;;;;0.60;100.00;102220.74;1688667;81;21157;-90
2020/12/19 10:02:46;;;;;;;34.90;19.27;;;;;;;0.62;100.00;102211.33;1685702;82;21553;-93
2020/12/19 10:05:49;;;;;;;37.38;20.08;;;;;;;0.63;100.00;102206.63;1685590;83;21165;-93
2020/12/19 10:12:21;;;;;;;35.43;19.50;;;;;;;0.65;100.00;102201.48;1691503;82;21770;-91
2020/12/19 10:14:49;;;;;;;37.25;20.45;;;;;;;0.64;100.00;102195.52;1686981;83;21148;-92
2020/12/19 10:17:37;;;;;;;39.10;21.27;;;;;;;0.64;100.00;102194.23;1688554;82;22389;-91
2020/12/19 10:35:48;;;;;;;38.67;20.45;;;;;;;0.53;100.00;102182.75;1704573;81;21081;-90
2020/12/19 10:38:52;;;;;;;38.02;20.30;;;;;;;0.51;100.00;102179.79;1705984;81;21258;-90
2020/12/19 10:44:44;;;;;;;34.27;19.25;;;;;;;0.54;100.00;102179.33;1721416;80;21180;-89
2020/12/19 10:51:03;;;;;;;39.10;21.02;;;;;;;0.56;100.00;102167.80;1716979;82;21582;-89
2020/12/19 10:53:31;;;;;;;35.78;20.48;;;;;;;0.53;100.00;102166.09;1716401;81;21673;-89
2020/12/19 10:56:06;;;;;;;34.15;19.42;;;;;;;0.51;100.00;102166.56;1718554;80;21197;-89
2020/12/19 11:02:24;;;;;;;37.20;19.48;;;;;;;0.54;100.00;102170.36;1634440;85;21632;-90
2020/12/19 11:04:52;;;;;;;38.50;20.80;;;;;;;0.55;100.00;102173.34;1687017;82;21222;-90
2020/12/19 11:08:02;;;;;;;38.23;20.75;;;;;;;0.56;100.00;102173.77;1700499;81;21606;-91
2020/12/19 11:10:35;;;;;;;34.05;19.50;;;;;;;0.58;100.00;102175.89;1718340;81;21697;-89
2020/12/19 11:17:15;;;;;;;34.50;19.45;;;;;;;0.59;100.00;102172.47;1683717;83;21194;-89
2020/12/19 11:23:16;;;;;;;37.83;20.45;;;;;;;0.64;100.00;102168.59;1684054;83;21447;-89
2020/12/19 11:26:35;;;;;;;40.35;22.67;;;;;;;0.65;100.00;102175.39;1699078;83;21199;-89
2020/12/19 11:29:25;;;;;;;41.65;21.62;;;;;;;0.66;100.00;102170.69;1717246;81;21232;-89
2020/12/19 11:31:53;;;;;;;38.88;21.57;;;;;;;0.66;100.00;102167.28;1715523;82;21252;-89
2020/12/19 11:34:21;;;;;;;37.33;21.55;;;;;;;0.66;100.00;102168.13;1724673;81;21611;-88
2020/12/19 11:40:40;;;;;;;42.88;22.10;;;;;;;0.67;100.00;102168.98;1722575;81;21700;-89
2020/12/19 11:43:08;;;;;;;39.13;21.48;;;;;;;0.68;100.00;102161.27;1685892;83;21266;-89
2020/12/19 11:45:37;;;;;;;39.15;22.80;;;;;;;0.69;100.00;102164.67;1722073;80;21301;-89
2020/12/19 11:48:05;;;;;;;42.23;23.55;;;;;;;0.67;100.00;102159.57;1719652;81;21212;-88
2020/12/19 11:50:33;;;;;;;44.95;25.05;;;;;;;0.67;100.00;102157.01;1719103;81;21294;-90
2020/12/19 11:56:51;;;;;;;45.55;23.75;;;;;;;0.67;100.00;102158.73;1627863;87;21579;-89
2020/12/19 11:59:21;;;;;;;42.93;22.90;;;;;;;0.67;100.00;102153.16;1641112;84;21167;-89
2020/12/19 12:01:53;;;;;;;46.20;25.40;;;;;;;0.67;100.00;102153.61;1699231;82;22191;-90
2020/12/19 12:05:04;;;;;;;49.30;26.82;;;;;;;0.69;100.00;102149.29;1699264;83;21208;-88
2020/12/19 12:11:46;;;;;;;43.45;23.67;;;;;;;0.67;100.00;102151.87;1711928;82;21544;-90
2020/12/19 12:14:57;;;;;;;46.58;24.30;;;;;;;0.62;100.00;102150.63;1730534;80;21150;-90
2020/12/19 12:17:25;;;;;;;44.03;23.25;;;;;;;0.62;100.00;102148.52;1715729;81;21371;-89
2020/12/19 12:20:44;;;;;;;51.42;26.70;;;;;;;0.63;100.00;102152.78;1712728;81;21181;-89
2020/12/19 12:23:36;;;;;;;42.60;23.77;;;;;;;0.63;100.00;102157.47;1725061;81;21120;-89
2020/12/19 12:26:04;;;;;;;43.83;23.60;;;;;;;0.61;100.00;102154.05;1713970;81;21226;-89
2020/12/19 12:32:22;;;;;;;43.40;22.75;;;;;;;0.62;100.00;102164.73;1717308;81;21192;-89
2020/12/19 12:34:50;;;;;;;43.45;24.10;;;;;;;0.62;100.00;102158.77;1718210;81;21151;-89
2020/12/19 12:37:18;;;;;;;38.65;22.35;;;;;;;0.62;100.00;102158.77;1719697;81;21173;-89
2020/12/19 12:39:46;;;;;;;38.42;22.80;;;;;;;0.62;100.00;102162.17;1714296;81;21206;-89
2020/12/19 12:42:21;;;;;;;38.02;22.07;;;;;;;0.65;100.00;102163.02;1718193;80;21271;-89
2020/12/19 12:44:50;;;;;;;41.68;23.60;;;;;;;0.65;100.00;102157.89;1727620;80;21374;-89
2020/12/19 12:47:50;;;;;;;45.78;24.43;;;;;;;0.62;100.00;102155.77;1719630;81;21199;-89
2020/12/19 12:54:08;;;;;;;39.27;22.37;;;;;;;0.62;100.00;102158.33;1698421;83;21807;-89
2020/12/19 12:56:50;;;;;;;43.75;25.27;;;;;;;0.63;100.00;102156.19;1710408;82;21173;-89
2020/12/19 12:59:18;;;;;;;40.33;23.42;;;;;;;0.64;100.00;102157.05;1710106;82;22272;-89
2020/12/19 13:02:11;;;;;;;42.20;24.72;;;;;;;0.66;100.00;102158.31;1716886;81;21171;-89
2020/12/19 13:08:44;;;;;;;46.88;25.15;;;;;;;0.64;100.00;102162.18;1718779;81;21188;-90
2020/12/19 13:11:21;;;;;;;216.23;37.25;;;;;;;0.66;100.00;102167.28;1701833;81;21183;-90
2020/12/19 13:14:24;;;;;;;203.25;34.85;;;;;;;0.66;100.00;102171.12;1678250;83;21378;-91
2020/12/19 13:20:30;;;;;;;61.80;27.73;;;;;;;0.72;100.00;102173.19;1647404;85;21733;-90
2020/12/19 13:22:59;;;;;;;60.92;30.35;;;;;;;0.74;100.00;102175.77;1652304;85;21603;-90
2020/12/19 13:29:18;;;;;;;56.08;30.35;;;;;;;0.77;100.00;102170.59;1652872;85;21579;-90
2020/12/19 13:31:48;;;;;;;46.95;27.42;;;;;;;0.79;100.00;102167.58;1676644;84;21285;-90
2020/12/19 13:34:16;;;;;;;54.05;27.77;;;;;;;0.80;100.00;102164.60;1683839;83;21132;-89
2020/12/19 13:36:44;;;;;;;50.17;28.02;;;;;;;0.83;100.00;102171.84;1664084;83;21207;-89
2020/12/19 13:39:17;;;;;;;46.75;26.02;;;;;;;0.86;100.00;102175.63;1702104;83;21634;-89
2020/12/19 13:41:54;;;;;;;43.85;25.97;;;;;;;0.89;100.00;102174.75;1693467;83;21264;-89
2020/12/19 13:48:01;;;;;;;51.35;27.62;;;;;;;0.91;100.00;102174.31;1691385;82;21204;-88
2020/12/19 13:50:29;;;;;;;54.25;26.37;;;;;;;0.92;100.00;102180.70;1696348;83;21243;-89
2020/12/19 13:52:57;;;;;;;48.25;28.07;;;;;;;0.94;100.00;102185.84;1721070;81;21163;-89
2020/12/19 13:55:26;;;;;;;53.38;29.52;;;;;;;0.96;100.00;102183.25;1724582;80;22170;-88
2020/12/19 13:58:01;;;;;;;49.50;27.32;;;;;;;0.98;100.00;102178.95;1727362;82;21237;-88
2020/12/19 14:00:30;;;;;;;48.58;27.58;;;;;;;0.98;100.00;102178.95;1725285;82;21171;-89
2020/12/19 14:02:58;;;;;;;48.90;27.58;;;;;;;0.99;100.00;102179.38;1718840;81;21179;-89
2020/12/19 14:05:26;;;;;;;52.65;28.42;;;;;;;1.00;100.00;102185.77;1707627;82;21156;-89
2020/12/19 14:07:57;;;;;;;45.88;26.27;;;;;;;1.01;100.00;102181.06;1690932;83;21218;-89
2020/12/19 14:10:25;;;;;;;54.23;28.42;;;;;;;1.03;100.00;102179.34;1708612;83;21643;-89
2020/12/19 14:12:55;;;;;;;53.55;26.85;;;;;;;1.05;100.00;102188.30;1681046;84;21262;-89
2020/12/19 14:15:23;;;;;;;51.23;27.65;;;;;;;1.05;100.00;102187.01;1708854;81;21151;-89
2020/12/19 14:18:28;;;;;;;49.23;26.82;;;;;;;1.05;100.00;102185.73;1709282;82;21643;-89
2020/12/19 14:21:14;;;;;;;48.08;28.80;;;;;;;1.05;100.00;102185.73;1698403;83;22262;-89
2020/12/19 14:23:43;;;;;;;52.90;28.05;;;;;;;1.06;100.00;102189.55;1710803;83;21420;-89
2020/12/19 14:26:11;;;;;;;53.52;27.73;;;;;;;1.07;100.00;102187.85;1708908;82;21175;-89
2020/12/19 14:28:39;;;;;;;56.80;28.77;;;;;;;1.07;100.00;102183.55;1689566;84;21328;-89
2020/12/19 14:31:25;;;;;;;55.28;30.02;;;;;;;1.08;100.00;102186.98;1670597;84;21234;-89
2020/12/19 14:34:03;;;;;;;48.20;27.20;;;;;;;1.09;100.00;102188.66;1688050;83;21230;-88
2020/12/19 14:36:44;;;;;;;49.40;28.45;;;;;;;1.09;100.00;102193.38;1692867;84;21675;-89
2020/12/19 14:39:48;;;;;;;57.85;30.12;;;;;;;1.10;100.00;102192.93;1691863;83;21239;-89
2020/12/19 14:43:00;;;;;;;58.02;29.82;;;;;;;1.09;100.00;102193.80;1693049;83;21179;-89
2020/12/19 14:45:48;;;;;;;55.38;30.12;;;;;;;1.10;100.00;102193.80;1699082;83;21614;-88
2020/12/19 14:48:16;;;;;;;51.88;29.80;;;;;;;1.11;100.00;102197.20;1689462;83;22295;-89
2020/12/19 14:51:13;;;;;;;50.25;29.42;;;;;;;1.10;100.00;102195.09;1671835;85;21215;-89
2020/12/19 15:12:32;;;;;;;51.65;27.93;;;;;;;1.04;100.00;102198.13;1710188;81;21243;-89
2020/12/19 15:15:04;;;;;;;52.78;29.90;;;;;;;1.01;100.00;102199.02;1710707;81;21631;-89
2020/12/19 15:18:05;;;;;;;60.10;31.52;;;;;;;1.02;100.00;102199.85;1697164;82;21338;-89
2020/12/19 15:20:36;;;;;;;60.80;32.30;;;;;;;1.00;100.00;102198.59;1691889;82;21196;-89
2020/12/19 15:31:06;;;;;;;63.58;33.05;;;;;;;1.00;100.00;102206.30;1695403;83;21598;-89
2020/12/19 15:33:52;;;;;;;58.70;32.93;;;;;;;1.01;100.00;102202.00;1689641;83;21188;-89
2020/12/19 15:36:21;;;;;;;60.40;33.78;;;;;;;1.00;100.00;102201.16;1702911;83;22269;-89
2020/12/19 16:24:08;;;;;;;92.53;38.75;;;;;;;1.20;100.00;102203.53;1700997;83;21834;-90
2020/12/19 16:31:36;;;;;;;104.43;46.60;;;;;;;1.40;100.00;102205.05;1729382;81;21175;-90
2020/12/19 16:37:55;;;;;;;82.97;39.53;;;;;;;1.55;100.00;102201.43;1702265;82;21203;-88
2020/12/19 16:48:04;;;;;;;65.92;36.17;;;;;;;1.53;100.00;102191.19;1685366;82;21211;-89
2020/12/19 16:50:33;;;;;;;75.52;38.88;;;;;;;1.49;100.00;102204.08;1729644;81;22256;-90
2020/12/19 16:53:12;;;;;;;70.87;37.60;;;;;;;1.47;100.00;102207.95;1732168;80;21265;-88
2020/12/19 16:55:47;;;;;;;73.80;36.85;;;;;;;1.47;100.00;102205.39;1748974;81;21237;-90
2020/12/19 17:02:06;;;;;;;121.50;60.38;;;;;;;1.48;100.00;102213.52;1713645;82;21488;-90
2020/12/19 17:04:34;;;;;;;122.67;58.92;;;;;;;1.48;100.00;102217.78;1745705;81;21329;-90
2020/12/19 17:07:34;;;;;;;114.80;55.23;;;;;;;1.46;100.00;102210.10;1750216;81;21191;-90
2020/12/19 17:13:53;;;;;;;82.62;42.73;;;;;;;1.49;100.00;102216.91;1708144;82;21636;-90
2020/12/19 17:16:52;;;;;;;82.10;43.68;;;;;;;1.46;100.00;102215.23;1731155;80;21131;-90
2020/12/19 17:19:21;;;;;;;77.40;41.80;;;;;;;1.45;100.00;102216.52;1715008;83;21357;-90
2020/12/19 17:32:45;;;;;;;87.33;40.25;;;;;;;1.39;100.00;102220.03;1648707;85;20264;-91
2020/12/19 17:35:52;;;;;;;88.70;42.33;;;;;;;1.38;100.00;102217.88;1676521;85;21390;-90
2020/12/19 17:42:25;;;;;;;79.82;40.75;;;;;;;1.34;100.00;102228.19;1712693;82;21172;-90
2020/12/19 17:49:36;;;;;;;75.87;40.28;;;;;;;1.33;100.00;102218.78;1655772;84;21254;-89
2020/12/19 17:52:04;;;;;;;78.42;39.92;;;;;;;1.32;100.00;102217.95;1712626;82;21422;-89
2020/12/19 17:55:01;;;;;;;69.05;37.90;;;;;;;1.29;100.00;102219.70;1712956;82;21186;-92
2020/12/19 17:57:29;;;;;;;71.95;39.50;;;;;;;1.29;100.00;102217.13;1707647;82;21309;-90
2020/12/19 18:04:16;;;;;;;80.92;41.20;;;;;;;1.32;100.00;102219.68;1686679;83;21194;-91
2020/12/19 18:06:45;;;;;;;88.07;42.62;;;;;;;1.26;100.00;102218.86;1707271;83;21396;-90
2020/12/19 18:13:03;;;;;;;74.35;38.58;;;;;;;1.26;100.00;102217.57;1677481;83;21152;-90
2020/12/19 18:16:13;;;;;;;76.28;38.38;;;;;;;1.32;100.00;102215.38;1683078;85;21624;-90
2020/12/19 18:26:50;;;;;;;84.40;43.40;;;;;;;1.20;100.00;102216.80;1720293;82;21716;-89
2020/12/19 18:29:29;;;;;;;72.12;39.18;;;;;;;1.13;100.00;102212.16;1713275;83;21135;-90
2020/12/19 18:31:59;;;;;;;81.55;41.20;;;;;;;1.09;100.00;102216.47;1718245;82;21205;-89
2020/12/19 18:34:50;;;;;;;95.95;44.58;;;;;;;1.07;100.00;102213.51;1753559;80;21147;-89
2020/12/19 18:41:14;;;;;;;86.70;42.25;;;;;;;1.00;100.00;102220.84;1767637;80;21176;-89
2020/12/19 18:43:42;;;;;;;87.45;41.75;;;;;;;0.92;100.00;102215.33;1734565;79;21151;-90
2020/12/19 18:50:00;;;;;;;94.92;46.50;;;;;;;0.87;100.00;102223.51;1733230;80;21285;-90
2020/12/19 18:52:37;;;;;;;79.05;40.73;;;;;;;0.84;100.00;102227.81;1757048;80;21517;-90
2020/12/19 18:59:09;;;;;;;85.70;39.10;;;;;;;0.80;100.00;102225.70;1717326;80;21239;-90
2020/12/19 19:10:05;;;;;;;76.05;37.85;;;;;;;0.79;100.00;102227.85;1681940;84;21389;-90
2020/12/19 19:13:13;;;;;;;81.25;40.52;;;;;;;0.80;100.00;102230.00;1683944;85;21251;-90
2020/12/19 19:16:01;;;;;;;85.17;40.78;;;;;;;0.78;100.00;102234.70;1703963;82;21138;-90
2020/12/19 19:22:33;;;;;;;87.22;39.40;;;;;;;0.73;100.00;102235.16;1729744;81;21202;-91
2020/12/19 19:28:52;;;;;;;86.97;40.35;;;;;;;0.71;100.00;102243.73;1700629;83;22024;-91
2020/12/19 19:31:54;;;;;;;84.17;39.08;;;;;;;0.70;100.00;102241.61;1692515;82;21207;-91
2020/12/19 19:37:58;;;;;;;85.60;40.30;;;;;;;0.72;100.00;102239.02;1682091;84;20374;-91
2020/12/19 19:41:08;;;;;;;89.17;37.40;;;;;;;0.72;100.00;102238.58;1677688;84;21382;-90
